Terminal Aerodrome Forecast
Issued by NWS

Home | Current Version | Previous Version | Text Only | Print | Product List | Glossary On
Versions: 1 2 3 4 5 6 7 8 9 10 11 12
000
FTUS42 KTBW 210500
TAFLAL
TAF
KLAL 210539Z 2106/2206 VRB03KT P6SM BKN070 BKN150
     FM211400 17006KT P6SM SCT030 BKN070 BKN200
     FM212100 18005KT P6SM BKN050 BKN150
     FM220200 15004KT 6SM -SHRA BKN040 OVC100
      AMD NOT SKED 2106/2112=

USA.gov is the U.S. government's official web portal to all federal, state and local government web resources and services.